Time;durP1;ratioP1;P1;durP2;ratioP2;P2;SDS_P1;SDS_P2;PMS_P1;PMS_P2;Temp;Humidity;BMP_temperature;BMP_pressure;BME280_temperature;BME280_humidity;BME280_pressure;Samples;Min_cycle;Max_cycle;Signal;HPM_P1;HPM_P2
2024/03/07 00:02:09;;;;;;;86.00;28.25;;;4.10;99.90;;;;;;6256937;28;20114;-88
2024/03/07 00:05:10;;;;;;;85.55;28.10;;;4.40;99.90;;;;;;6251797;28;20057;-89
2024/03/07 00:08:13;;;;;;;97.93;28.58;;;4.60;99.90;;;;;;6258063;28;20071;-89
2024/03/07 00:11:14;;;;;;;79.43;25.40;;;4.80;99.90;;;;;;6233778;28;20049;-90
2024/03/07 00:14:16;;;;;;;87.97;27.40;;;4.90;99.90;;;;;;6228430;28;20049;-90
2024/03/07 00:17:19;;;;;;;75.25;24.35;;;5.00;99.90;;;;;;6235074;28;20057;-90
2024/03/07 00:20:21;;;;;;;102.38;24.65;;;5.00;99.90;;;;;;6244749;28;20080;-91
2024/03/07 00:23:23;;;;;;;119.43;27.40;;;5.20;99.90;;;;;;6264712;28;20099;-91
2024/03/07 00:26:25;;;;;;;124.85;24.95;;;5.20;99.90;;;;;;6260791;28;20056;-90
2024/03/07 00:29:28;;;;;;;134.77;26.85;;;5.20;99.90;;;;;;6258698;28;20056;-91
2024/03/07 00:32:35;;;;;;;121.75;26.02;;;5.20;99.90;;;;;;6265670;28;20053;-90
2024/03/07 00:35:37;;;;;;;126.88;28.60;;;5.30;99.90;;;;;;6228715;28;20057;-90
2024/03/07 00:38:38;;;;;;;161.07;28.20;;;5.40;99.90;;;;;;6289546;28;20124;-89
2024/03/07 00:41:40;;;;;;;111.30;27.27;;;5.40;99.90;;;;;;6276776;28;20048;-90
2024/03/07 00:44:43;;;;;;;102.90;26.13;;;5.50;99.90;;;;;;6252389;28;20049;-89
2024/03/07 00:47:45;;;;;;;159.23;30.77;;;5.50;99.90;;;;;;6279192;28;20060;-92
2024/03/07 00:50:47;;;;;;;91.18;29.20;;;5.50;99.90;;;;;;6286244;28;20071;-89
2024/03/07 00:53:48;;;;;;;130.77;29.98;;;5.60;99.90;;;;;;6277416;28;20044;-89
2024/03/07 00:56:50;;;;;;;107.78;30.30;;;5.60;99.90;;;;;;6275511;28;20053;-89
2024/03/07 00:59:52;;;;;;;112.60;30.60;;;5.70;99.90;;;;;;6248829;28;20060;-89
2024/03/07 01:02:54;;;;;;;122.97;30.73;;;5.70;99.90;;;;;;6258536;28;20102;-89
2024/03/07 01:05:56;;;;;;;90.20;30.20;;;5.70;99.90;;;;;;6259649;28;20057;-90
2024/03/07 01:08:58;;;;;;;89.88;31.65;;;5.80;99.90;;;;;;6262967;28;20058;-90
2024/03/07 01:12:03;;;;;;;112.22;32.63;;;5.90;99.90;;;;;;6278578;28;20056;-89
2024/03/07 01:15:05;;;;;;;89.75;32.10;;;5.90;99.90;;;;;;6249571;28;20049;-90
2024/03/07 01:18:07;;;;;;;90.00;31.70;;;5.90;99.90;;;;;;6260958;28;20064;-90
2024/03/07 01:21:09;;;;;;;91.50;31.98;;;6.00;99.90;;;;;;6300569;28;20139;-89
2024/03/07 01:24:11;;;;;;;90.38;32.30;;;6.10;99.90;;;;;;6277117;28;20056;-88
2024/03/07 01:27:13;;;;;;;88.00;32.20;;;6.10;99.90;;;;;;6254195;28;20076;-87
2024/03/07 01:30:15;;;;;;;92.95;32.67;;;6.10;99.90;;;;;;6246374;28;20419;-88
2024/03/07 01:33:16;;;;;;;91.65;32.45;;;6.20;99.90;;;;;;6272732;28;20044;-89
2024/03/07 01:36:18;;;;;;;92.40;33.80;;;6.20;99.90;;;;;;6255562;28;20063;-89
2024/03/07 01:39:20;;;;;;;88.22;32.30;;;6.20;99.90;;;;;;6252705;28;20057;-89
2024/03/07 01:42:21;;;;;;;98.18;33.03;;;6.20;99.90;;;;;;6254967;28;20141;-89
2024/03/07 01:45:23;;;;;;;89.07;32.42;;;6.30;99.90;;;;;;6257328;28;20210;-89
2024/03/07 01:48:25;;;;;;;86.57;29.85;;;6.30;99.90;;;;;;6272208;28;20527;-90
2024/03/07 01:51:27;;;;;;;84.35;30.23;;;6.20;99.90;;;;;;6280453;28;20059;-92
2024/03/07 01:54:28;;;;;;;81.72;29.77;;;6.20;99.90;;;;;;6258295;28;20096;-91
2024/03/07 01:57:30;;;;;;;84.93;31.08;;;6.20;99.90;;;;;;6259333;28;20041;-93
2024/03/07 02:00:32;;;;;;;87.32;31.70;;;6.20;99.90;;;;;;6284404;28;20049;-91
2024/03/07 02:03:33;;;;;;;81.45;30.05;;;6.20;99.90;;;;;;6277599;28;20060;-91
2024/03/07 02:06:35;;;;;;;83.18;31.48;;;6.30;99.90;;;;;;6280613;28;20045;-93
2024/03/07 02:09:36;;;;;;;81.28;29.10;;;6.30;99.90;;;;;;6273284;28;20477;-93
2024/03/07 02:12:38;;;;;;;82.22;28.98;;;6.30;99.90;;;;;;6264187;28;20500;-93
2024/03/07 02:15:42;;;;;;;79.47;29.70;;;6.30;99.90;;;;;;6252586;28;20067;-93
2024/03/07 02:18:44;;;;;;;78.70;29.40;;;6.30;99.90;;;;;;6245237;28;20068;-93
2024/03/07 02:21:46;;;;;;;87.40;30.35;;;6.30;99.90;;;;;;6242227;28;20416;-91
2024/03/07 02:24:48;;;;;;;88.72;30.63;;;6.30;99.90;;;;;;6252299;28;20048;-90
2024/03/07 02:27:49;;;;;;;91.95;31.58;;;6.30;99.90;;;;;;6277349;28;20068;-90
2024/03/07 02:30:51;;;;;;;84.38;30.98;;;6.30;99.90;;;;;;6286103;28;20044;-91
2024/03/07 02:33:53;;;;;;;86.47;31.55;;;6.30;99.90;;;;;;6280765;28;20052;-92
2024/03/07 02:36:54;;;;;;;89.65;32.25;;;6.30;99.90;;;;;;6296693;28;20064;-90
2024/03/07 02:39:56;;;;;;;86.45;31.17;;;6.40;99.90;;;;;;6277516;28;20476;-90
2024/03/07 02:42:58;;;;;;;88.93;31.75;;;6.50;99.90;;;;;;6278281;28;20131;-88
2024/03/07 02:45:59;;;;;;;85.75;32.42;;;6.50;99.90;;;;;;6242612;28;20817;-89
2024/03/07 02:49:01;;;;;;;80.78;31.20;;;6.60;99.90;;;;;;6262846;28;20053;-90
2024/03/07 02:52:07;;;;;;;76.65;30.25;;;6.60;99.90;;;;;;6261450;28;20060;-89
2024/03/07 02:55:10;;;;;;;82.60;31.60;;;6.60;99.90;;;;;;6275721;28;20041;-90
2024/03/07 02:58:12;;;;;;;88.80;33.17;;;6.60;99.90;;;;;;6279148;28;20068;-90
2024/03/07 03:01:13;;;;;;;80.85;32.55;;;6.70;99.90;;;;;;6257013;28;20107;-89
2024/03/07 03:04:15;;;;;;;79.10;31.75;;;6.70;99.90;;;;;;6276719;28;20049;-91
2024/03/07 03:07:17;;;;;;;81.45;30.70;;;6.70;99.90;;;;;;6271504;28;20052;-92
2024/03/07 03:10:20;;;;;;;81.55;32.35;;;6.80;99.90;;;;;;6297732;28;20045;-91
2024/03/07 03:13:29;;;;;;;73.82;29.70;;;6.80;99.90;;;;;;6273944;28;20047;-82
2024/03/07 03:16:31;;;;;;;73.65;30.33;;;6.80;99.90;;;;;;6280247;28;20080;-90
2024/03/07 03:19:49;;;;;;;70.93;29.75;;;6.90;99.90;;;;;;6266925;28;20048;-91
2024/03/07 03:22:52;;;;;;;69.05;29.90;;;6.90;99.90;;;;;;6280947;28;20488;-91
2024/03/07 03:26:13;;;;;;;69.95;30.75;;;6.90;99.90;;;;;;6266253;28;20117;-92
2024/03/07 03:29:18;;;;;;;71.10;29.95;;;6.90;99.90;;;;;;6275400;28;20053;-90
2024/03/07 03:32:19;;;;;;;72.43;30.23;;;7.00;99.90;;;;;;6280155;28;20052;-90
2024/03/07 03:35:21;;;;;;;74.30;30.83;;;7.00;99.90;;;;;;6261381;28;20045;-91
2024/03/07 03:38:23;;;;;;;69.07;30.02;;;7.00;99.90;;;;;;6269342;28;20040;-91
2024/03/07 03:41:25;;;;;;;72.97;30.83;;;7.00;99.90;;;;;;6259109;28;20450;-91
2024/03/07 03:44:27;;;;;;;70.15;30.13;;;7.10;99.90;;;;;;6256006;28;20135;-90
2024/03/07 03:47:29;;;;;;;65.97;29.58;;;7.00;99.90;;;;;;6234303;28;20085;-91
2024/03/07 03:50:31;;;;;;;64.25;28.83;;;7.00;99.90;;;;;;6258617;28;20144;-92
2024/03/07 03:53:33;;;;;;;60.00;27.55;;;7.00;99.90;;;;;;6240525;28;20477;-91
2024/03/07 03:56:35;;;;;;;61.10;28.10;;;7.00;99.90;;;;;;6258294;28;20075;-93
2024/03/07 03:59:38;;;;;;;60.50;28.25;;;7.00;99.90;;;;;;6243058;28;20060;-91
2024/03/07 04:02:40;;;;;;;57.15;26.23;;;7.00;99.90;;;;;;6249254;28;20056;-90
2024/03/07 04:05:41;;;;;;;59.78;27.92;;;6.90;99.90;;;;;;6257743;28;20053;-91
2024/03/07 04:08:43;;;;;;;59.97;27.55;;;6.90;99.90;;;;;;6234153;28;20532;-91
2024/03/07 04:11:45;;;;;;;66.45;28.50;;;6.90;99.90;;;;;;6257473;28;20049;-90
2024/03/07 04:14:47;;;;;;;57.75;26.73;;;6.80;99.90;;;;;;6215437;28;20053;-91
2024/03/07 04:17:49;;;;;;;58.15;27.55;;;6.80;99.90;;;;;;6257322;28;20048;-91
2024/03/07 04:20:51;;;;;;;57.70;27.75;;;6.80;99.90;;;;;;6233704;28;20057;-91
2024/03/07 04:23:53;;;;;;;56.90;26.05;;;6.80;99.90;;;;;;6275147;28;20056;-91
2024/03/07 04:26:55;;;;;;;62.65;28.35;;;6.80;99.90;;;;;;6251454;28;20041;-93
2024/03/07 04:29:56;;;;;;;65.63;27.80;;;6.80;99.90;;;;;;6247864;28;20064;-91
2024/03/07 04:32:58;;;;;;;57.10;27.23;;;6.80;99.90;;;;;;6240425;28;20046;-90
2024/03/07 04:36:02;;;;;;;60.88;27.70;;;6.90;99.90;;;;;;6274989;28;20107;-91
2024/03/07 04:39:04;;;;;;;62.97;28.67;;;6.90;99.90;;;;;;6242156;28;20041;-92
2024/03/07 04:42:06;;;;;;;69.70;30.52;;;6.80;99.90;;;;;;6233777;28;20412;-90
2024/03/07 04:45:10;;;;;;;68.88;28.83;;;6.80;99.90;;;;;;6266444;23;20489;-91
2024/03/07 04:48:12;;;;;;;68.40;30.83;;;6.80;99.90;;;;;;6302817;28;20067;-90
2024/03/07 04:51:14;;;;;;;75.93;30.38;;;6.70;99.90;;;;;;6277044;28;20055;-90
2024/03/07 04:54:16;;;;;;;76.32;31.88;;;6.60;99.90;;;;;;6276308;28;20045;-90
2024/03/07 04:57:19;;;;;;;75.50;31.30;;;6.60;99.90;;;;;;6295666;28;20064;-91
2024/03/07 05:00:20;;;;;;;79.80;31.85;;;6.60;99.90;;;;;;6258540;28;20044;-91
2024/03/07 05:03:22;;;;;;;80.35;31.88;;;6.60;99.90;;;;;;6278528;28;20079;-90
2024/03/07 05:06:28;;;;;;;75.43;31.83;;;6.60;99.90;;;;;;6279154;28;20052;-90
2024/03/07 05:09:30;;;;;;;77.78;32.03;;;6.60;99.90;;;;;;6275744;28;20055;-90
2024/03/07 05:12:32;;;;;;;76.60;31.27;;;6.60;99.90;;;;;;6295721;28;20527;-90
2024/03/07 05:15:34;;;;;;;73.95;31.80;;;6.50;99.90;;;;;;6280473;28;20063;-91
2024/03/07 05:18:40;;;;;;;79.75;33.15;;;6.60;99.90;;;;;;6278262;28;20131;-90
2024/03/07 05:21:42;;;;;;;77.82;32.97;;;6.60;99.90;;;;;;6284634;28;20112;-89
2024/03/07 05:24:43;;;;;;;81.88;33.30;;;6.60;99.90;;;;;;6295006;28;20060;-90
2024/03/07 05:27:45;;;;;;;76.13;30.55;;;6.50;99.90;;;;;;6294354;28;20129;-85
2024/03/07 05:30:47;;;;;;;83.90;33.10;;;6.50;99.90;;;;;;6266887;28;20056;-89
2024/03/07 05:33:49;;;;;;;83.03;33.53;;;6.50;99.90;;;;;;6306873;28;20047;-90
2024/03/07 05:36:51;;;;;;;83.32;31.50;;;6.50;99.90;;;;;;6282484;28;20056;-89
2024/03/07 05:39:53;;;;;;;83.65;32.50;;;6.50;99.90;;;;;;6284847;28;20056;-91
2024/03/07 05:42:55;;;;;;;84.93;32.25;;;6.50;99.90;;;;;;6280090;28;20052;-89
2024/03/07 05:45:56;;;;;;;85.70;34.17;;;6.40;99.90;;;;;;6263773;28;20103;-90
2024/03/07 05:48:59;;;;;;;90.25;35.72;;;6.40;99.90;;;;;;6302120;28;20731;-90
2024/03/07 05:52:01;;;;;;;86.38;32.90;;;6.40;99.90;;;;;;6286843;28;20063;-89
2024/03/07 05:55:03;;;;;;;81.75;33.75;;;6.50;99.90;;;;;;6286424;28;20056;-90
2024/03/07 05:58:08;;;;;;;76.45;31.63;;;6.50;99.90;;;;;;6291270;28;20055;-90
2024/03/07 06:01:09;;;;;;;79.10;32.42;;;6.60;99.90;;;;;;6282838;28;20469;-89
2024/03/07 06:04:11;;;;;;;82.88;33.40;;;6.70;99.90;;;;;;6261529;28;20488;-90
2024/03/07 06:07:13;;;;;;;69.22;31.15;;;6.70;99.90;;;;;;6303164;28;20499;-89
2024/03/07 06:10:16;;;;;;;79.22;32.88;;;6.80;99.90;;;;;;6290003;28;20133;-90
2024/03/07 06:13:18;;;;;;;77.30;34.17;;;6.80;99.90;;;;;;6314391;28;20041;-91
2024/03/07 06:16:32;;;;;;;70.80;32.47;;;6.80;99.90;;;;;;6320614;28;20051;-91
2024/03/07 06:19:34;;;;;;;71.70;32.45;;;6.80;99.90;;;;;;6303983;28;20044;-89
2024/03/07 06:22:35;;;;;;;71.63;32.40;;;6.90;99.90;;;;;;6287436;28;20059;-90
2024/03/07 06:25:37;;;;;;;72.28;33.17;;;6.90;99.90;;;;;;6293266;28;20514;-89
2024/03/07 06:28:39;;;;;;;69.05;32.88;;;6.90;99.90;;;;;;6283719;28;20045;-89
2024/03/07 06:31:41;;;;;;;70.85;33.95;;;6.90;99.90;;;;;;6299064;28;20049;-89
2024/03/07 06:34:42;;;;;;;73.15;33.92;;;7.00;99.90;;;;;;6284649;28;20064;-89
2024/03/07 06:37:44;;;;;;;75.25;34.28;;;7.00;99.90;;;;;;6322917;28;20422;-91
2024/03/07 06:40:46;;;;;;;72.07;34.17;;;6.90;99.90;;;;;;6285075;28;20620;-90
2024/03/07 06:43:49;;;;;;;75.03;34.85;;;6.90;99.90;;;;;;6283457;28;20457;-90
2024/03/07 06:46:51;;;;;;;76.32;34.72;;;6.90;99.90;;;;;;6280614;28;20502;-89
2024/03/07 06:49:53;;;;;;;79.22;35.10;;;7.00;99.90;;;;;;6280773;28;20562;-90
2024/03/07 06:52:55;;;;;;;77.40;35.38;;;7.00;99.90;;;;;;6281956;28;20052;-89
2024/03/07 06:55:56;;;;;;;72.45;33.80;;;7.00;99.90;;;;;;6297987;28;20052;-91
2024/03/07 06:58:59;;;;;;;73.75;33.53;;;7.10;99.90;;;;;;6262363;28;20059;-89
2024/03/07 07:02:01;;;;;;;82.28;35.65;;;7.10;99.90;;;;;;6279422;28;20098;-91
2024/03/07 07:05:06;;;;;;;81.50;37.58;;;7.10;99.90;;;;;;6280526;28;20056;-89
2024/03/07 07:08:08;;;;;;;76.80;36.33;;;7.10;99.90;;;;;;6255999;28;20471;-90
2024/03/07 07:11:11;;;;;;;82.85;35.95;;;7.00;99.90;;;;;;6298653;28;20059;-89
2024/03/07 07:14:13;;;;;;;87.82;37.67;;;7.00;99.90;;;;;;6281654;28;20041;-90
2024/03/07 07:17:15;;;;;;;79.60;36.08;;;6.90;99.90;;;;;;6282455;28;20064;-90
2024/03/07 07:20:17;;;;;;;87.30;37.22;;;6.90;99.90;;;;;;6281483;28;20060;-90
2024/03/07 07:23:18;;;;;;;83.50;36.55;;;7.00;99.90;;;;;;6283351;28;20064;-90
2024/03/07 07:26:20;;;;;;;81.35;36.80;;;7.00;99.90;;;;;;6298764;28;20051;-90
2024/03/07 07:29:23;;;;;;;80.57;37.53;;;7.20;99.90;;;;;;6272267;28;20059;-91
2024/03/07 07:32:27;;;;;;;79.10;37.22;;;7.40;99.90;;;;;;6285436;28;20500;-90
2024/03/07 07:35:29;;;;;;;80.68;38.00;;;7.70;99.90;;;;;;6280191;28;20063;-88
2024/03/07 07:38:31;;;;;;;79.10;37.53;;;7.80;99.90;;;;;;6300712;28;20131;-91
2024/03/07 07:41:33;;;;;;;77.85;37.70;;;7.90;99.90;;;;;;6300382;28;20060;-89
2024/03/07 07:44:36;;;;;;;78.00;38.90;;;8.00;99.90;;;;;;6303881;28;20120;-92
2024/03/07 07:47:40;;;;;;;76.18;38.10;;;8.10;99.90;;;;;;6281968;28;20136;-88
2024/03/07 07:50:41;;;;;;;74.25;38.47;;;8.10;99.90;;;;;;6283309;28;20922;-89
2024/03/07 07:53:44;;;;;;;73.45;37.20;;;8.20;99.90;;;;;;6301966;28;20056;-91
2024/03/07 07:56:47;;;;;;;71.03;35.65;;;8.50;99.90;;;;;;6303752;28;20055;-92
2024/03/07 07:59:49;;;;;;;72.80;36.38;;;8.70;99.90;;;;;;6288949;28;20101;-88
2024/03/07 08:02:51;;;;;;;68.68;34.00;;;8.60;99.90;;;;;;6286507;28;20064;-93
2024/03/07 08:05:54;;;;;;;63.17;29.58;;;9.10;99.90;;;;;;6289613;28;20037;-90
2024/03/07 08:08:56;;;;;;;55.05;22.65;;;9.50;99.90;;;;;;6313046;28;20094;-92
2024/03/07 08:12:02;;;;;;;62.92;26.08;;;9.80;99.90;;;;;;6285501;28;20487;-81
2024/03/07 08:15:04;;;;;;;64.75;25.75;;;10.30;99.90;;;;;;6261934;28;20056;-86
2024/03/07 08:18:09;;;;;;;56.35;24.35;;;10.70;99.90;;;;;;6270889;28;20164;-93
2024/03/07 08:21:13;;;;;;;62.00;24.98;;;11.00;97.30;;;;;;6257018;28;20083;-85
2024/03/07 08:24:15;;;;;;;57.15;25.08;;;11.00;91.30;;;;;;6295147;28;20049;-91
2024/03/07 08:27:17;;;;;;;58.70;25.33;;;10.50;90.60;;;;;;6293537;28;20159;-89
2024/03/07 08:30:19;;;;;;;62.15;25.58;;;10.10;94.40;;;;;;6268496;28;20153;-86
2024/03/07 08:33:21;;;;;;;65.53;32.70;;;9.90;97.50;;;;;;6270068;28;20057;-86
2024/03/07 08:36:24;;;;;;;68.93;33.38;;;9.90;98.70;;;;;;6256025;28;20059;-87
2024/03/07 08:39:26;;;;;;;69.07;35.75;;;10.20;94.20;;;;;;6278239;28;20053;-91
2024/03/07 08:42:27;;;;;;;69.80;37.35;;;10.20;96.40;;;;;;6299286;28;20067;-89
2024/03/07 08:45:33;;;;;;;68.28;36.00;;;10.10;97.00;;;;;;6281703;28;20044;-86
2024/03/07 08:48:36;;;;;;;71.47;35.75;;;10.10;98.90;;;;;;6281208;28;20447;-90
2024/03/07 08:51:38;;;;;;;70.18;36.30;;;10.30;98.50;;;;;;6302202;28;20052;-87
2024/03/07 08:54:40;;;;;;;67.20;35.65;;;10.40;95.50;;;;;;6299197;28;20063;-92
2024/03/07 08:57:41;;;;;;;62.83;30.25;;;10.60;94.20;;;;;;6297537;28;20483;-90
2024/03/07 09:00:45;;;;;;;61.15;26.75;;;10.90;92.20;;;;;;6286396;28;20055;-91
2024/03/07 09:03:46;;;;;;;64.82;27.38;;;10.90;92.40;;;;;;6253300;28;20530;-91
2024/03/07 09:06:48;;;;;;;60.53;26.90;;;10.60;89.60;;;;;;6297137;28;20393;-92
2024/03/07 09:09:50;;;;;;;65.05;26.75;;;10.50;93.30;;;;;;6279709;28;20060;-92
2024/03/07 09:12:52;;;;;;;62.40;25.35;;;10.90;91.80;;;;;;6295399;28;20052;-92
2024/03/07 09:15:54;;;;;;;59.75;26.60;;;11.10;87.10;;;;;;6279775;28;20056;-89
2024/03/07 09:18:56;;;;;;;56.22;25.90;;;11.40;88.00;;;;;;6254381;28;20064;-92
2024/03/07 09:21:58;;;;;;;55.25;25.50;;;11.50;84.00;;;;;;6277347;28;20133;-90
2024/03/07 09:24:59;;;;;;;57.17;24.77;;;11.50;62.80;;;;;;6298579;28;20514;-91
2024/03/07 09:28:01;;;;;;;61.40;26.15;;;11.50;74.10;;;;;;6290995;28;20506;-84
2024/03/07 09:31:03;;;;;;;52.03;23.83;;;11.60;62.30;;;;;;6293754;28;20052;-83
2024/03/07 09:34:04;;;;;;;57.20;25.27;;;11.40;64.40;;;;;;6268754;28;20370;-84
2024/03/07 09:37:07;;;;;;;52.08;24.48;;;11.30;68.10;;;;;;6292734;28;20056;-89
2024/03/07 09:40:11;;;;;;;57.75;25.02;;;11.20;62.60;;;;;;6293402;28;20522;-87
2024/03/07 09:43:16;;;;;;;62.53;30.45;;;10.90;70.40;;;;;;6269894;28;20044;-85
2024/03/07 09:46:17;;;;;;;62.92;33.88;;;11.00;70.70;;;;;;6279103;28;20056;-89
2024/03/07 09:49:19;;;;;;;61.22;34.53;;;11.00;73.80;;;;;;6294109;28;20518;-86
2024/03/07 09:52:21;;;;;;;66.05;36.60;;;11.00;72.70;;;;;;6276293;28;20176;-85
2024/03/07 09:55:24;;;;;;;67.63;37.25;;;10.90;71.20;;;;;;6275747;28;20136;-89
2024/03/07 09:58:29;;;;;;;72.57;39.80;;;10.90;81.10;;;;;;6276468;28;20045;-82
2024/03/07 10:01:31;;;;;;;74.88;39.50;;;10.90;80.00;;;;;;6275544;28;20094;-90
2024/03/07 10:04:33;;;;;;;69.80;39.75;;;10.80;76.80;;;;;;6275034;28;20056;-84
2024/03/07 10:07:34;;;;;;;72.05;39.40;;;10.70;81.30;;;;;;6273704;28;20555;-83
2024/03/07 10:10:36;;;;;;;83.57;44.13;;;10.60;88.40;;;;;;6267001;28;20079;-84
2024/03/07 10:13:38;;;;;;;87.57;46.13;;;10.50;87.90;;;;;;6279631;28;20053;-86
2024/03/07 10:16:41;;;;;;;89.65;45.90;;;10.20;93.10;;;;;;6277780;28;20508;-88
2024/03/07 10:19:43;;;;;;;103.25;49.17;;;10.20;94.70;;;;;;6278386;28;20056;-88
2024/03/07 10:22:44;;;;;;;97.40;49.13;;;10.20;95.60;;;;;;6277413;28;20052;-89
2024/03/07 10:25:46;;;;;;;100.18;50.00;;;10.30;96.20;;;;;;6295415;28;20191;-88
2024/03/07 10:28:47;;;;;;;101.25;49.75;;;10.60;92.60;;;;;;6263778;28;20052;-87
2024/03/07 10:31:49;;;;;;;97.55;49.15;;;10.50;90.80;;;;;;6298913;28;20099;-84
2024/03/07 10:35:06;;;;;;;95.65;49.85;;;10.50;91.60;;;;;;6274043;28;20059;-85
2024/03/07 10:38:11;;;;;;;95.35;48.72;;;10.70;93.40;;;;;;6298541;28;20060;-85
2024/03/07 10:41:16;;;;;;;94.97;48.45;;;11.10;86.70;;;;;;6273696;28;20124;-85
2024/03/07 10:44:18;;;;;;;100.57;48.22;;;11.10;82.00;;;;;;6288996;28;20052;-87
2024/03/07 10:47:23;;;;;;;93.18;47.92;;;11.10;80.70;;;;;;6278910;28;20071;-86
2024/03/07 10:50:26;;;;;;;92.40;48.63;;;11.20;78.00;;;;;;6280204;28;20147;-88
2024/03/07 10:53:30;;;;;;;94.80;48.65;;;11.30;81.50;;;;;;6297334;28;20048;-84
2024/03/07 10:56:32;;;;;;;88.18;47.13;;;11.40;74.60;;;;;;6296322;28;20142;-82
2024/03/07 10:59:34;;;;;;;90.07;47.45;;;11.50;73.10;;;;;;6295813;28;20063;-85
2024/03/07 11:02:36;;;;;;;87.28;46.28;;;11.50;62.60;;;;;;6296765;28;20071;-83
2024/03/07 11:05:37;;;;;;;93.13;46.85;;;11.40;66.80;;;;;;6296321;28;20059;-86
2024/03/07 11:08:39;;;;;;;86.80;46.05;;;11.30;66.20;;;;;;6296860;28;20165;-86
2024/03/07 11:11:43;;;;;;;82.18;44.17;;;11.50;71.10;;;;;;6273304;28;20420;-85
2024/03/07 11:14:46;;;;;;;82.30;44.83;;;11.10;71.80;;;;;;6260958;28;20063;-84
2024/03/07 11:17:48;;;;;;;79.57;42.90;;;11.00;79.20;;;;;;6295761;28;20060;-88
2024/03/07 11:20:50;;;;;;;80.78;42.90;;;11.20;81.80;;;;;;6296377;28;20060;-81
2024/03/07 11:23:53;;;;;;;73.93;41.20;;;11.40;66.20;;;;;;6277505;28;20202;-85
2024/03/07 11:26:55;;;;;;;69.75;39.58;;;11.50;73.10;;;;;;6293670;28;20408;-83
2024/03/07 11:29:57;;;;;;;62.63;35.22;;;11.60;72.80;;;;;;6278703;28;20098;-81
2024/03/07 11:32:59;;;;;;;65.82;35.70;;;11.50;64.80;;;;;;6297297;28;20427;-86
2024/03/07 11:36:04;;;;;;;62.38;34.70;;;11.60;67.10;;;;;;6297100;28;20105;-82
2024/03/07 11:39:24;;;;;;;59.63;33.97;;;11.60;51.70;;;;;;6279913;28;20052;-86
2024/03/07 11:42:25;;;;;;;61.55;32.15;;;11.60;60.20;;;;;;6287556;28;20052;-84
2024/03/07 11:45:29;;;;;;;59.72;32.50;;;11.70;54.80;;;;;;6301846;28;20080;-87
2024/03/07 11:48:31;;;;;;;58.33;31.55;;;11.90;61.50;;;;;;6296462;28;20060;-87
2024/03/07 11:51:33;;;;;;;57.72;31.17;;;11.90;37.80;;;;;;6277956;28;20079;-86
2024/03/07 11:54:35;;;;;;;55.00;29.60;;;11.80;55.80;;;;;;6254990;28;20063;-84
2024/03/07 11:57:37;;;;;;;54.53;29.75;;;11.90;42.20;;;;;;6252082;28;20056;-80
2024/03/07 12:00:42;;;;;;;54.40;29.15;;;12.00;43.20;;;;;;6276921;28;20178;-84
2024/03/07 12:03:43;;;;;;;54.42;22.25;;;12.20;40.10;;;;;;6294360;28;20057;-82
2024/03/07 12:06:45;;;;;;;47.20;22.02;;;12.30;36.80;;;;;;6270157;28;20045;-84
2024/03/07 12:09:50;;;;;;;44.38;20.50;;;12.70;25.80;;;;;;6253860;28;20055;-86
2024/03/07 12:12:52;;;;;;;42.90;19.50;;;12.90;11.30;;;;;;6267533;28;20059;-81
2024/03/07 12:15:58;;;;;;;46.05;20.55;;;13.30;5.50;;;;;;6294083;28;20146;-87
2024/03/07 12:19:00;;;;;;;44.20;20.50;;;13.50;1.00;;;;;;6270025;28;20503;-83
2024/03/07 12:22:02;;;;;;;40.83;20.17;;;13.40;1.00;;;;;;6295679;28;20060;-86
2024/03/07 12:25:08;;;;;;;41.97;18.38;;;13.10;3.60;;;;;;6294700;28;20045;-83
2024/03/07 12:28:12;;;;;;;34.53;17.73;;;12.90;1.00;;;;;;6290548;28;20063;-93
2024/03/07 12:31:16;;;;;;;38.00;17.70;;;12.30;1.00;;;;;;6277017;28;20114;-86
2024/03/07 12:34:19;;;;;;;34.78;17.13;;;12.20;1.00;;;;;;6276141;28;20060;-82
2024/03/07 12:37:26;;;;;;;37.20;15.90;;;12.00;1.00;;;;;;6294160;28;20415;-87
2024/03/07 12:40:33;;;;;;;31.40;14.82;;;12.20;1.00;;;;;;6295841;28;20143;-91
2024/03/07 12:43:36;;;;;;;29.58;15.55;;;12.10;1.00;;;;;;6271502;28;20083;-91
2024/03/07 12:46:40;;;;;;;36.45;17.95;;;11.70;1.00;;;;;;6280207;28;20062;-93
2024/03/07 12:49:46;;;;;;;29.25;15.70;;;11.70;1.00;;;;;;6278241;28;20491;-87
2024/03/07 12:52:52;;;;;;;26.38;14.75;;;11.50;1.00;;;;;;6252741;28;20053;-85
2024/03/07 12:55:54;;;;;;;33.97;15.02;;;11.70;1.00;;;;;;6270152;28;20136;-86
2024/03/07 12:58:56;;;;;;;24.65;13.43;;;12.10;1.00;;;;;;6293476;28;20052;-92
2024/03/07 13:01:57;;;;;;;26.70;13.98;;;12.30;1.00;;;;;;6276277;28;20056;-85
2024/03/07 13:04:59;;;;;;;27.67;15.00;;;12.30;1.00;;;;;;6294097;28;20075;-85
2024/03/07 13:08:02;;;;;;;24.85;13.90;;;12.20;1.00;;;;;;6293317;28;20059;-84
2024/03/07 13:11:05;;;;;;;25.15;13.70;;;12.40;1.00;;;;;;6277186;28;20052;-86
2024/03/07 13:14:07;;;;;;;27.48;14.95;;;12.50;1.00;;;;;;6275471;28;20045;-85
2024/03/07 13:17:08;;;;;;;29.45;15.35;;;12.70;1.00;;;;;;6283871;28;20174;-84
2024/03/07 13:20:14;;;;;;;26.88;12.65;;;12.60;1.00;;;;;;6276007;28;20366;-85
2024/03/07 13:23:16;;;;;;;26.73;12.23;;;12.60;1.00;;;;;;6293811;28;20056;-87
2024/03/07 13:26:20;;;;;;;27.88;11.55;;;12.20;1.00;;;;;;6297504;28;20052;-84
2024/03/07 13:29:24;;;;;;;28.85;15.00;;;12.00;1.00;;;;;;6276534;28;20398;-90
2024/03/07 13:32:28;;;;;;;24.90;14.57;;;11.70;1.00;;;;;;6279560;28;20082;-85
2024/03/07 13:35:30;;;;;;;31.58;14.75;;;11.60;1.00;;;;;;6252842;28;20053;-87
2024/03/07 13:38:32;;;;;;;30.20;15.85;;;11.50;1.00;;;;;;6277350;28;20056;-86
2024/03/07 13:41:34;;;;;;;29.52;16.38;;;11.50;1.00;;;;;;6293909;28;20526;-88
2024/03/07 13:44:35;;;;;;;34.40;17.08;;;11.50;1.00;;;;;;6276665;28;20129;-89
2024/03/07 13:47:42;;;;;;;29.67;16.55;;;11.80;1.00;;;;;;6294399;28;20518;-89
2024/03/07 13:50:48;;;;;;;30.25;16.38;;;11.80;1.00;;;;;;6271636;28;20056;-87
2024/03/07 13:54:14;;;;;;;31.50;17.52;;;11.80;1.00;;;;;;6270845;28;20076;-90
2024/03/07 13:57:19;;;;;;;35.67;19.35;;;11.30;1.00;;;;;;6269966;28;20057;-86
2024/03/07 14:00:21;;;;;;;36.13;19.52;;;11.20;1.00;;;;;;6280535;28;20049;-92
2024/03/07 14:03:23;;;;;;;39.33;21.85;;;11.30;1.00;;;;;;6274974;28;20052;-82
2024/03/07 14:06:24;;;;;;;37.45;21.38;;;11.10;1.00;;;;;;6293847;28;20063;-84
2024/03/07 14:09:26;;;;;;;38.80;22.25;;;11.00;1.00;;;;;;6292799;28;20052;-85
2024/03/07 14:12:28;;;;;;;41.90;23.55;;;11.30;1.00;;;;;;6299186;28;20060;-89
2024/03/07 14:15:31;;;;;;;45.42;25.15;;;11.50;1.00;;;;;;6255374;28;20140;-84
2024/03/07 14:18:33;;;;;;;48.60;25.33;;;11.40;1.00;;;;;;6272452;28;20059;-84
2024/03/07 14:21:35;;;;;;;49.67;26.00;;;11.50;1.00;;;;;;6279680;28;20040;-84
2024/03/07 14:24:38;;;;;;;48.17;26.40;;;11.60;1.00;;;;;;6297968;28;20410;-85
2024/03/07 14:27:48;;;;;;;46.17;26.88;;;11.60;1.00;;;;;;6297492;28;20243;-91
2024/03/07 14:30:53;;;;;;;;;;;11.70;1.00;;;;;;6273344;28;20057;-84
2024/03/07 14:33:55;;;;;;;45.10;25.02;;;12.50;1.00;;;;;;6273269;28;19955;-84
2024/03/07 14:36:57;;;;;;;50.70;26.75;;;13.00;1.00;;;;;;6274821;28;20653;-91
2024/03/07 14:39:59;;;;;;;44.60;19.70;;;13.50;1.00;;;;;;6281096;28;20415;-88
2024/03/07 14:43:04;;;;;;;48.20;20.75;;;13.30;1.00;;;;;;6267094;28;20068;-90
2024/03/07 14:46:06;;;;;;;53.55;22.52;;;13.20;1.00;;;;;;6282620;28;20305;-89
2024/03/07 14:49:08;;;;;;;56.08;21.90;;;13.10;1.00;;;;;;6288631;28;20129;-88
2024/03/07 14:52:13;;;;;;;43.55;20.77;;;13.40;1.00;;;;;;6283027;28;20052;-88
2024/03/07 14:55:15;;;;;;;46.45;20.65;;;13.60;1.00;;;;;;6311367;28;20112;-90
2024/03/07 14:58:16;;;;;;;46.03;21.73;;;13.70;1.00;;;;;;6273291;28;20052;-88
2024/03/07 15:01:18;;;;;;;42.90;19.27;;;13.70;1.00;;;;;;6282679;28;20052;-86
2024/03/07 15:04:21;;;;;;;46.03;20.48;;;13.60;1.00;;;;;;6298165;28;20060;-86
2024/03/07 15:07:23;;;;;;;43.70;20.83;;;13.10;1.00;;;;;;6282042;28;20141;-84
2024/03/07 15:10:26;;;;;;;45.17;21.23;;;13.00;1.00;;;;;;6300353;28;20060;-88
2024/03/07 15:13:28;;;;;;;46.60;21.48;;;12.60;1.00;;;;;;6268646;28;21005;-83
2024/03/07 15:16:34;;;;;;;45.47;21.42;;;12.60;1.00;;;;;;6308662;28;20063;-90
2024/03/07 15:19:38;;;;;;;47.45;24.95;;;12.20;1.00;;;;;;6307118;28;20403;-86
2024/03/07 15:22:40;;;;;;;53.72;24.67;;;11.90;1.00;;;;;;6278173;28;20064;-85
2024/03/07 15:25:42;;;;;;;46.28;25.90;;;11.60;1.00;;;;;;6282172;28;20594;-88
2024/03/07 15:28:43;;;;;;;45.50;25.52;;;11.30;1.00;;;;;;6269133;28;20051;-89
2024/03/07 15:31:45;;;;;;;46.60;25.08;;;11.30;1.00;;;;;;6296767;28;20554;-86
2024/03/07 15:34:49;;;;;;;44.60;24.85;;;11.20;1.00;;;;;;6279132;28;20063;-87